Time;durP1;ratioP1;P1;durP2;ratioP2;P2;SDS_P1;SDS_P2;PMS_P1;PMS_P2;Temp;Humidity;BMP_temperature;BMP_pressure;BME280_temperature;BME280_humidity;BME280_pressure;Samples;Min_cycle;Max_cycle;Signal;HPM_P1;HPM_P2
2023/12/09 00:00:46;;;;;;;25.67;9.73;;;;;;;7.11;100.00;99576.13;12190697;19;20007;-79
2023/12/09 00:04:48;;;;;;;25.60;9.80;;;;;;;7.14;100.00;99580.28;12217906;19;20416;-80
2023/12/09 00:08:50;;;;;;;22.33;10.02;;;;;;;7.13;100.00;99595.91;12217130;19;20003;-80
2023/12/09 00:12:53;;;;;;;24.38;9.55;;;;;;;7.13;100.00;99595.06;12191478;19;20011;-81
2023/12/09 00:16:55;;;;;;;21.15;9.93;;;;;;;7.12;100.00;99599.72;12206114;19;20010;-80
2023/12/09 00:20:57;;;;;;;28.77;12.68;;;;;;;7.11;100.00;99611.75;12211284;19;20035;-79
2023/12/09 00:24:59;;;;;;;26.77;12.27;;;;;;;7.08;100.00;99610.31;12182250;19;20036;-80
2023/12/09 00:29:01;;;;;;;27.13;11.70;;;;;;;7.10;100.00;99618.28;12215383;19;20014;-82
2023/12/09 00:33:04;;;;;;;36.67;15.85;;;;;;;7.11;100.00;99622.72;12202401;19;20035;-79
2023/12/09 00:37:05;;;;;;;29.77;14.73;;;;;;;7.11;100.00;99624.59;12185228;19;20623;-80
2023/12/09 00:41:07;;;;;;;33.28;14.70;;;;;;;7.12;100.00;99629.88;12207410;19;20015;-81
2023/12/09 00:45:10;;;;;;;33.13;14.25;;;;;;;7.16;100.00;99627.50;12213139;19;20489;-79
2023/12/09 00:49:12;;;;;;;;;;;;;;;7.15;100.00;99634.88;12186080;19;20010;-78
2023/12/09 00:53:14;;;;;;;30.60;14.02;;;;;;;7.13;100.00;99644.41;12203367;19;19927;-81
2023/12/09 00:57:20;;;;;;;36.20;14.90;;;;;;;7.10;100.00;99651.16;12215674;19;20018;-79
2023/12/09 01:01:22;;;;;;;37.13;16.17;;;;;;;7.08;100.00;99648.69;12188432;19;20042;-79
2023/12/09 01:05:24;;;;;;;42.03;16.88;;;;;;;7.09;100.00;99660.47;12199204;19;20017;-79
2023/12/09 01:09:26;;;;;;;39.65;16.55;;;;;;;7.10;100.00;99659.38;12203024;19;20027;-79
2023/12/09 01:13:30;;;;;;;37.65;16.70;;;;;;;7.06;100.00;99655.44;12178087;19;20022;-78
2023/12/09 01:17:31;;;;;;;40.70;18.02;;;;;;;7.04;100.00;99658.41;12201769;19;20095;-79
2023/12/09 01:21:33;;;;;;;55.00;20.08;;;;;;;7.01;100.00;99655.28;12203267;19;20015;-78
2023/12/09 01:25:35;;;;;;;51.78;20.17;;;;;;;7.00;100.00;99668.16;12176445;19;20006;-79
2023/12/09 01:29:37;;;;;;;49.70;20.08;;;;;;;6.99;100.00;99660.16;12206195;19;20121;-79
2023/12/09 01:33:38;;;;;;;41.63;18.90;;;;;;;6.99;100.00;99660.16;12189961;19;20595;-79
2023/12/09 01:37:41;;;;;;;55.55;19.35;;;;;;;6.92;100.00;99671.22;12193941;19;20030;-78
2023/12/09 01:41:43;;;;;;;51.70;21.23;;;;;;;6.93;100.00;99674.78;12202414;19;20033;-78
2023/12/09 01:45:45;;;;;;;52.05;20.08;;;;;;;6.95;100.00;99675.41;12177894;19;20437;-79
2023/12/09 01:49:47;;;;;;;48.65;21.20;;;;;;;6.99;100.00;99676.59;12198217;19;20025;-79
2023/12/09 01:53:50;;;;;;;46.63;19.27;;;;;;;7.01;100.00;99677.22;12195838;19;20009;-79
2023/12/09 01:57:52;;;;;;;45.55;18.15;;;;;;;7.01;100.00;99664.34;12181817;19;20263;-78
2023/12/09 02:01:54;;;;;;;38.42;16.48;;;;;;;7.00;100.00;99659.13;12203183;19;20042;-79
2023/12/09 02:05:56;;;;;;;37.17;17.55;;;;;;;7.01;100.00;99663.50;12203507;19;20026;-80
2023/12/09 02:09:58;;;;;;;37.85;17.45;;;;;;;7.00;100.00;99653.63;12186778;19;20049;-77
2023/12/09 02:14:07;;;;;;;38.78;16.33;;;;;;;7.03;100.00;99650.44;12216466;19;20017;-81
2023/12/09 02:18:09;;;;;;;40.03;16.63;;;;;;;7.06;100.00;99647.22;12214116;19;20475;-80
2023/12/09 02:22:11;;;;;;;33.75;15.70;;;;;;;7.11;100.00;99646.53;12197155;19;20362;-78
2023/12/09 02:26:24;;;;;;;35.83;15.70;;;;;;;7.15;100.00;99642.28;12214951;19;20022;-80
2023/12/09 02:30:32;;;;;;;36.30;15.02;;;;;;;7.16;100.00;99639.28;12217981;19;20019;-80
2023/12/09 02:34:38;;;;;;;35.15;16.08;;;;;;;7.18;100.00;99630.84;12228511;19;20105;-82
2023/12/09 02:38:40;;;;;;;29.05;13.43;;;;;;;7.20;100.00;99634.19;12213697;19;20630;-79
2023/12/09 02:42:42;;;;;;;29.33;13.13;;;;;;;7.22;100.00;99618.34;12191165;19;20014;-78
2023/12/09 02:46:44;;;;;;;25.83;10.53;;;;;;;7.23;100.00;99617.28;12206802;19;20464;-78
2023/12/09 02:50:45;;;;;;;29.42;11.80;;;;;;;7.26;100.00;99614.91;12210750;19;20014;-79
2023/12/09 02:54:47;;;;;;;31.73;12.90;;;;;;;7.27;100.00;99597.38;12186061;19;20015;-80
2023/12/09 02:58:49;;;;;;;31.75;13.23;;;;;;;7.28;100.00;99593.56;12213165;19;20021;-77
2023/12/09 03:02:51;;;;;;;33.15;12.65;;;;;;;7.30;100.00;99583.22;12212461;19;20012;-78
2023/12/09 03:06:52;;;;;;;30.88;12.52;;;;;;;7.30;100.00;99575.00;12188182;19;21048;-79
2023/12/09 03:10:54;;;;;;;28.33;12.30;;;;;;;7.31;100.00;99559.38;12212994;19;20046;-80
2023/12/09 03:14:56;;;;;;;26.52;12.13;;;;;;;7.28;100.00;99557.94;12212795;19;20102;-78
2023/12/09 03:18:58;;;;;;;29.80;11.40;;;;;;;7.29;100.00;99550.56;12191000;19;20806;-79
2023/12/09 03:23:00;;;;;;;21.42;9.48;;;;;;;7.20;100.00;99555.56;12213229;19;20030;-79
2023/12/09 03:27:02;;;;;;;24.45;9.13;;;;;;;7.14;100.00;99553.75;12210612;19;20027;-80
2023/12/09 03:31:04;;;;;;;21.47;7.97;;;;;;;6.99;100.00;99556.06;12192013;19;20022;-80
2023/12/09 03:35:07;;;;;;;17.05;6.65;;;;;;;6.84;100.00;99543.66;12208935;19;20117;-80
2023/12/09 03:39:09;;;;;;;16.88;6.38;;;;;;;6.80;100.00;99544.31;12213842;19;20014;-78
2023/12/09 03:43:11;;;;;;;14.10;5.72;;;;;;;6.75;100.00;99539.56;12191011;19;20006;-79
2023/12/09 03:47:13;;;;;;;11.63;5.43;;;;;;;6.75;100.00;99538.69;12210612;19;20669;-77
2023/12/09 03:51:29;;;;;;;15.68;5.90;;;;;;;6.74;100.00;99546.09;12216121;19;20006;-79
2023/12/09 03:55:30;;;;;;;16.25;5.07;;;;;;;6.75;100.00;99552.38;12193075;19;20013;-79
2023/12/09 03:59:32;;;;;;;11.18;4.00;;;;;;;6.74;100.00;99557.03;12204327;19;20011;-82
2023/12/09 04:03:34;;;;;;;9.52;3.88;;;;;;;6.77;100.00;99553.00;12210447;19;20002;-80
2023/12/09 04:07:36;;;;;;;12.60;3.92;;;;;;;6.77;100.00;99559.31;12181291;19;20018;-80
2023/12/09 04:11:38;;;;;;;10.40;4.07;;;;;;;6.82;100.00;99547.69;12212261;19;20011;-79
2023/12/09 04:15:39;;;;;;;17.38;4.35;;;;;;;6.86;100.00;99554.34;12207852;19;20387;-79
2023/12/09 04:19:41;;;;;;;14.57;4.35;;;;;;;6.91;100.00;99550.94;12187962;19;20011;-79
2023/12/09 04:23:44;;;;;;;14.45;4.80;;;;;;;6.97;100.00;99558.22;12206494;19;20027;-79
2023/12/09 04:27:46;;;;;;;12.82;4.57;;;;;;;7.04;100.00;99547.97;12181420;19;20463;-78
2023/12/09 04:31:47;;;;;;;14.65;4.45;;;;;;;7.14;100.00;99550.16;12201086;19;20074;-80
2023/12/09 04:35:49;;;;;;;12.68;4.90;;;;;;;7.21;100.00;99540.78;12202659;19;20031;-81
2023/12/09 04:39:51;;;;;;;14.60;4.45;;;;;;;7.29;100.00;99540.44;12183978;19;20019;-80
2023/12/09 04:43:53;;;;;;;16.33;5.17;;;;;;;7.34;100.00;99538.88;12208217;19;20038;-79
2023/12/09 04:47:55;;;;;;;13.82;4.65;;;;;;;7.41;100.00;99534.16;12201935;19;20027;-80
2023/12/09 04:51:57;;;;;;;12.10;4.53;;;;;;;7.44;100.00;99528.19;12182196;19;20006;-78
2023/12/09 04:55:58;;;;;;;12.65;5.55;;;;;;;7.42;100.00;99527.59;12203107;19;20075;-81
2023/12/09 05:00:03;;;;;;;13.90;5.25;;;;;;;7.43;100.00;99524.59;12201032;19;20477;-80
2023/12/09 05:04:05;;;;;;;17.90;7.53;;;;;;;7.43;100.00;99521.84;12186331;19;20589;-78
2023/12/09 05:08:08;;;;;;;16.85;6.32;;;;;;;7.42;100.00;99514.72;12207771;19;20381;-79
2023/12/09 05:12:09;;;;;;;15.87;6.23;;;;;;;7.42;100.00;99511.13;12209296;19;20469;-78
2023/12/09 05:16:11;;;;;;;17.35;5.97;;;;;;;7.41;100.00;99515.78;12185348;19;20077;-80
2023/12/09 05:20:13;;;;;;;21.25;6.40;;;;;;;7.41;100.00;99523.19;12206861;19;20118;-80
2023/12/09 05:24:15;;;;;;;17.23;6.80;;;;;;;7.44;100.00;99526.28;12197982;19;20010;-80
2023/12/09 05:28:18;;;;;;;17.42;7.07;;;;;;;7.47;100.00;99511.28;12175566;19;20007;-79
2023/12/09 05:32:19;;;;;;;15.77;6.85;;;;;;;7.53;100.00;99502.09;12198876;19;20006;-80
2023/12/09 05:36:21;;;;;;;24.90;8.73;;;;;;;7.55;100.00;99502.69;12206977;19;20011;-79
2023/12/09 05:40:23;;;;;;;23.15;8.63;;;;;;;7.58;100.00;99493.97;12201448;19;20014;-81
2023/12/09 05:44:25;;;;;;;17.98;9.13;;;;;;;7.59;100.00;99494.84;12222613;19;20009;-80
2023/12/09 05:48:27;;;;;;;22.45;9.18;;;;;;;7.61;100.00;99489.91;12218696;19;20111;-82
2023/12/09 05:52:28;;;;;;;23.37;8.70;;;;;;;7.61;100.00;99488.00;12212569;19;20010;-82
2023/12/09 05:56:30;;;;;;;20.05;8.93;;;;;;;7.62;100.00;99494.34;12208198;19;20014;-82
2023/12/09 06:00:32;;;;;;;28.77;8.73;;;;;;;7.65;100.00;99486.47;12203984;19;20019;-79
2023/12/09 06:04:37;;;;;;;28.45;8.75;;;;;;;7.64;100.00;99481.22;12181980;19;20414;-81
2023/12/09 06:08:39;;;;;;;19.43;8.63;;;;;;;7.64;100.00;99462.03;12204670;19;20018;-79
2023/12/09 06:12:41;;;;;;;18.73;8.55;;;;;;;7.63;100.00;99463.94;12206382;19;20006;-82
2023/12/09 06:16:43;;;;;;;18.90;8.07;;;;;;;7.67;100.00;99464.28;12188256;19;20777;-80
2023/12/09 06:20:45;;;;;;;15.65;6.78;;;;;;;7.66;100.00;99468.94;12209826;19;20391;-79
2023/12/09 06:24:46;;;;;;;15.95;6.75;;;;;;;7.66;100.00;99455.22;12182691;19;20046;-78
2023/12/09 06:28:48;;;;;;;17.65;5.65;;;;;;;7.67;100.00;99454.16;12199953;19;20029;-79
2023/12/09 06:32:50;;;;;;;16.55;6.93;;;;;;;7.70;100.00;99453.69;12200877;19;20474;-79
2023/12/09 06:36:52;;;;;;;14.23;5.57;;;;;;;7.74;100.00;99454.03;12178634;19;20010;-78
2023/12/09 06:40:54;;;;;;;15.75;5.72;;;;;;;7.79;100.00;99456.06;12197808;19;20027;-81
2023/12/09 06:44:55;;;;;;;16.15;5.93;;;;;;;7.79;100.00;99456.06;12203705;19;20020;-78
2023/12/09 06:48:57;;;;;;;20.27;6.10;;;;;;;7.80;100.00;99453.09;12180322;19;20511;-77
2023/12/09 06:53:00;;;;;;;19.00;6.68;;;;;;;7.83;100.00;99457.25;12200388;19;20036;-78
2023/12/09 06:57:02;;;;;;;;;;;;;;;7.82;100.00;99450.09;12203339;19;20022;-78
2023/12/09 07:01:04;;;;;;;23.05;7.20;;;;;;;7.85;100.00;99447.72;12187547;19;20676;-78
2023/12/09 07:05:06;;;;;;;31.13;6.67;;;;;;;7.88;100.00;99439.00;12208731;19;20038;-79
2023/12/09 07:09:09;;;;;;;17.80;6.03;;;;;;;7.91;100.00;99437.66;12212594;19;20066;-79
2023/12/09 07:13:11;;;;;;;17.50;5.88;;;;;;;7.91;100.00;99449.50;12191596;19;20473;-80
2023/12/09 07:17:13;;;;;;;19.55;6.50;;;;;;;7.90;100.00;99447.81;12207783;19;20015;-78
2023/12/09 07:21:15;;;;;;;23.90;6.43;;;;;;;7.91;100.00;99454.97;12200181;19;20359;-77
2023/12/09 07:25:17;;;;;;;14.85;5.15;;;;;;;7.93;100.00;99446.50;12179608;19;20105;-80
2023/12/09 07:29:19;;;;;;;15.90;5.17;;;;;;;7.99;100.00;99448.28;12207916;19;20126;-79
2023/12/09 07:33:21;;;;;;;15.13;6.20;;;;;;;8.00;100.00;99449.94;12204678;19;20014;-84
2023/12/09 07:37:23;;;;;;;16.00;5.90;;;;;;;8.04;100.00;99448.38;12183276;19;20090;-80
2023/12/09 07:41:25;;;;;;;9.18;4.65;;;;;;;8.07;100.00;99450.66;12210557;19;21215;-79
2023/12/09 07:45:27;;;;;;;16.40;5.25;;;;;;;8.16;100.00;99432.72;12202537;19;20028;-78
2023/12/09 07:49:29;;;;;;;23.23;7.13;;;;;;;8.18;100.00;99433.31;12176399;19;20611;-79
2023/12/09 07:53:31;;;;;;;16.70;6.20;;;;;;;8.21;100.00;99441.06;12190694;19;20011;-80
2023/12/09 07:57:34;;;;;;;17.83;6.03;;;;;;;8.20;100.00;99431.13;12193541;19;20626;-79
2023/12/09 08:01:36;;;;;;;19.45;5.30;;;;;;;8.21;100.00;99424.59;12172174;19;20006;-79
2023/12/09 08:05:40;;;;;;;17.23;5.57;;;;;;;8.25;100.00;99419.44;12194167;19;20006;-81
2023/12/09 08:09:41;;;;;;;17.35;6.35;;;;;;;8.21;100.00;99421.84;12195400;19;20007;-79
2023/12/09 08:13:45;;;;;;;22.42;8.18;;;;;;;8.28;100.00;99427.19;12177307;19;19999;-78
2023/12/09 08:17:47;;;;;;;19.05;8.43;;;;;;;8.32;100.00;99411.88;12189287;19;20111;-81
2023/12/09 08:21:49;;;;;;;29.80;9.65;;;;;;;8.29;100.00;99403.31;12178793;19;20002;-78
2023/12/09 08:25:50;;;;;;;24.00;9.98;;;;;;;8.35;100.00;99411.41;12189558;19;20096;-79
2023/12/09 08:29:52;;;;;;;25.27;9.80;;;;;;;8.29;100.00;99420.63;12173659;19;20015;-84
2023/12/09 08:33:56;;;;;;;31.35;10.45;;;;;;;8.29;100.00;99409.63;12177061;19;20438;-82
2023/12/09 08:37:58;;;;;;;26.58;9.30;;;;;;;8.41;100.00;99415.09;12198372;19;20024;-80
2023/12/09 08:41:59;;;;;;;21.02;9.75;;;;;;;8.47;100.00;99416.03;12204758;19;20014;-81
2023/12/09 08:46:02;;;;;;;23.08;9.07;;;;;;;8.45;100.00;99399.81;12145236;19;20022;-81
2023/12/09 08:50:04;;;;;;;25.50;9.53;;;;;;;8.54;100.00;99387.38;12202587;19;20017;-79
2023/12/09 08:54:21;;;;;;;27.88;10.15;;;;;;;8.64;100.00;99375.72;12178298;19;20007;-79
2023/12/09 08:58:23;;;;;;;24.48;8.77;;;;;;;8.61;100.00;99377.03;12199867;19;20011;-80
2023/12/09 09:02:26;;;;;;;19.00;8.73;;;;;;;8.62;100.00;99364.13;12178328;19;20002;-80
2023/12/09 09:06:29;;;;;;;24.65;8.63;;;;;;;8.74;100.00;99347.59;12202959;19;20015;-79
2023/12/09 09:10:31;;;;;;;22.65;9.00;;;;;;;8.94;100.00;99338.84;12205645;19;20347;-82
2023/12/09 09:14:37;;;;;;;16.95;7.68;;;;;;;9.05;100.00;99325.03;12223309;19;20021;-81
2023/12/09 09:18:39;;;;;;;18.42;8.10;;;;;;;9.23;100.00;99328.56;12204668;19;20024;-82
2023/12/09 09:22:41;;;;;;;16.98;6.93;;;;;;;9.31;100.00;99330.88;12188289;19;20073;-78
2023/12/09 09:26:47;;;;;;;18.00;6.35;;;;;;;9.36;100.00;99329.03;12201954;19;20508;-80
2023/12/09 09:30:49;;;;;;;16.85;5.35;;;;;;;9.37;100.00;99329.88;12199897;19;20024;-79
2023/12/09 09:34:51;;;;;;;13.35;4.68;;;;;;;9.47;100.00;99331.94;12175781;19;20014;-81
2023/12/09 09:38:53;;;;;;;14.80;4.55;;;;;;;9.63;100.00;99322.78;12195942;19;20038;-82
2023/12/09 09:42:56;;;;;;;13.75;4.50;;;;;;;9.65;100.00;99325.28;12196863;19;20006;-80
2023/12/09 09:47:00;;;;;;;8.50;3.45;;;;;;;9.69;100.00;99304.44;12171954;19;20014;-81
2023/12/09 09:51:05;;;;;;;12.95;4.07;;;;;;;9.68;100.00;99311.03;12198330;19;20009;-81
2023/12/09 09:55:08;;;;;;;12.20;4.72;;;;;;;9.75;100.00;99297.91;12193922;19;20753;-81
2023/12/09 09:59:11;;;;;;;13.57;4.03;;;;;;;9.64;100.00;99320.84;12176315;19;20014;-81
2023/12/09 10:03:13;;;;;;;13.60;4.15;;;;;;;9.50;100.00;99329.50;12194351;19;20497;-83
2023/12/09 10:07:15;;;;;;;10.57;3.55;;;;;;;9.39;100.00;99311.19;12195317;19;20017;-82
2023/12/09 10:11:17;;;;;;;11.23;4.25;;;;;;;9.32;100.00;99308.63;12179205;19;20007;-82
2023/12/09 10:15:19;;;;;;;16.70;4.50;;;;;;;9.40;100.00;99298.28;12193119;19;20082;-82
2023/12/09 10:19:22;;;;;;;;;;;;;;;9.42;100.00;99285.09;12197113;19;20006;-81
2023/12/09 10:23:24;;;;;;;10.85;4.00;;;;;;;9.48;100.00;99298.66;12170656;19;20335;-81
2023/12/09 10:27:26;;;;;;;14.13;5.72;;;;;;;9.66;100.00;99275.50;12194472;19;20032;-84
2023/12/09 10:31:29;;;;;;;14.63;4.90;;;;;;;9.86;100.00;99263.09;12196862;19;20014;-82
2023/12/09 10:35:31;;;;;;;16.05;5.63;;;;;;;9.93;100.00;99249.94;12183433;19;20931;-82
2023/12/09 10:39:33;;;;;;;13.63;4.95;;;;;;;10.12;100.00;99236.66;12234583;19;20018;-82
2023/12/09 10:43:35;;;;;;;;;;;;;;;10.25;100.00;99219.69;12223742;19;20014;-82
2023/12/09 10:47:37;;;;;;;7.38;3.90;;;;;;;10.29;100.00;99198.81;12189940;19;20616;-84
2023/12/09 10:51:39;;;;;;;10.43;4.57;;;;;;;10.37;100.00;99194.75;12214407;19;20014;-83
2023/12/09 10:55:41;;;;;;;13.93;3.80;;;;;;;10.37;100.00;99179.06;12196975;19;20022;-83
2023/12/09 10:59:43;;;;;;;6.47;3.90;;;;;;;10.29;100.00;99149.25;12215801;19;20066;-83
2023/12/09 11:03:45;;;;;;;10.30;2.42;;;;;;;10.32;100.00;99140.50;12205143;19;20011;-84
2023/12/09 11:07:48;;;;;;;14.10;3.55;;;;;;;10.20;100.00;99129.63;12185190;19;20784;-83
2023/12/09 11:11:50;;;;;;;8.77;2.85;;;;;;;10.23;100.00;99108.97;12209447;19;20014;-84
2023/12/09 11:16:15;;;;;;;8.00;3.10;;;;;;;10.16;100.00;99089.13;12202966;19;20015;-83
2023/12/09 11:20:18;;;;;;;10.60;3.33;;;;;;;10.03;100.00;99088.47;12184113;19;20018;-83
2023/12/09 11:24:29;;;;;;;13.07;3.53;;;;;;;9.66;100.00;99076.59;12211641;19;20007;-84
2023/12/09 11:28:32;;;;;;;11.85;3.80;;;;;;;9.42;100.00;99079.69;12213123;19;20037;-83
2023/12/09 11:32:34;;;;;;;6.50;3.35;;;;;;;9.28;100.00;99071.06;12191297;19;20496;-84
2023/12/09 11:36:38;;;;;;;12.02;4.28;;;;;;;9.27;100.00;99066.63;12207175;19;20039;-85
2023/12/09 11:40:41;;;;;;;12.35;3.53;;;;;;;9.23;100.00;99051.75;12204656;19;20090;-84
2023/12/09 11:44:44;;;;;;;;;;;;;;;9.28;100.00;99051.81;12208111;19;20018;-83
2023/12/09 11:48:46;;;;;;;7.90;3.17;;;;;;;9.30;100.00;99037.78;12205883;19;19922;-82
2023/12/09 11:52:49;;;;;;;9.73;3.40;;;;;;;9.42;100.00;99035.69;12186885;19;20389;-83
2023/12/09 11:56:51;;;;;;;10.02;4.13;;;;;;;9.63;100.00;99036.69;12209791;19;20889;-83
2023/12/09 12:00:53;;;;;;;10.65;3.58;;;;;;;10.13;100.00;99020.81;12212736;19;20459;-83
2023/12/09 12:04:55;;;;;;;9.83;4.33;;;;;;;10.87;100.00;99000.50;12189374;19;20023;-82
2023/12/09 12:08:57;;;;;;;10.15;3.40;;;;;;;11.36;100.00;98978.81;12217536;19;20042;-84
2023/12/09 12:13:02;;;;;;;8.30;2.70;;;;;;;11.34;100.00;98956.19;12222614;19;20014;-83
2023/12/09 12:17:04;;;;;;;6.50;2.55;;;;;;;11.26;100.00;98953.16;12196953;19;20247;-83
2023/12/09 12:21:06;;;;;;;6.88;2.50;;;;;;;10.96;100.00;98949.25;12221359;19;20002;-84
2023/12/09 12:25:09;;;;;;;9.80;2.78;;;;;;;10.59;100.00;98957.72;12219101;19;20007;-84
2023/12/09 12:29:17;;;;;;;5.47;2.30;;;;;;;10.21;100.00;98943.25;12200636;19;20010;-83
2023/12/09 12:33:22;;;;;;;7.05;2.38;;;;;;;10.09;100.00;98920.59;12237644;19;20047;-85
2023/12/09 12:37:24;;;;;;;8.18;2.67;;;;;;;10.08;100.00;98921.69;12239866;19;20023;-84
2023/12/09 12:41:26;;;;;;;5.68;2.70;;;;;;;10.10;100.00;98908.50;12210248;19;20058;-84
2023/12/09 12:45:30;;;;;;;7.47;2.43;;;;;;;10.15;100.00;98916.78;12234248;19;20010;-85
2023/12/09 12:49:37;;;;;;;4.38;1.88;;;;;;;10.18;100.00;98896.97;12225294;19;20474;-86
2023/12/09 12:53:39;;;;;;;5.72;2.00;;;;;;;10.09;100.00;98873.81;12202680;19;20012;-84
2023/12/09 12:57:43;;;;;;;6.05;2.47;;;;;;;10.03;100.00;98865.53;12227742;19;20015;-83
2023/12/09 13:01:46;;;;;;;4.55;1.95;;;;;;;9.94;100.00;98861.66;12196978;19;20553;-83
2023/12/09 13:05:48;;;;;;;10.23;2.55;;;;;;;9.90;100.00;98854.19;12222856;19;20018;-83
2023/12/09 13:09:50;;;;;;;7.20;2.10;;;;;;;9.69;100.00;98856.00;12219253;19;20019;-83
2023/12/09 13:13:52;;;;;;;7.15;1.85;;;;;;;9.61;100.00;98829.84;12200298;19;20031;-84
2023/12/09 13:17:54;;;;;;;4.75;1.88;;;;;;;9.62;100.00;98811.44;12220791;19;20006;-85
2023/12/09 13:21:57;;;;;;;5.68;1.92;;;;;;;9.65;100.00;98786.13;12226120;19;20407;-84
2023/12/09 13:26:00;;;;;;;5.95;1.85;;;;;;;9.71;100.00;98779.56;12207880;19;20029;-84
2023/12/09 13:30:06;;;;;;;6.85;1.83;;;;;;;9.69;100.00;98754.22;12226492;19;20492;-84
2023/12/09 13:34:08;;;;;;;5.65;1.80;;;;;;;9.67;100.00;98753.69;12224706;19;20010;-84
2023/12/09 13:38:10;;;;;;;6.63;1.97;;;;;;;9.65;100.00;98734.69;12201462;19;20492;-83
2023/12/09 13:42:12;;;;;;;6.25;1.70;;;;;;;9.69;100.00;98701.97;12225765;19;20011;-85
2023/12/09 13:46:14;;;;;;;6.13;1.43;;;;;;;9.80;100.00;98700.91;12222798;19;20126;-84
2023/12/09 13:50:16;;;;;;;4.50;2.00;;;;;;;9.86;100.00;98704.50;12204398;19;20006;-85
2023/12/09 13:54:22;;;;;;;7.10;1.47;;;;;;;9.92;100.00;98701.47;12213843;19;20014;-84
2023/12/09 13:58:24;;;;;;;7.43;2.28;;;;;;;9.88;100.00;98670.09;12220208;19;20056;-85
2023/12/09 14:02:26;;;;;;;4.43;1.50;;;;;;;9.77;100.00;98654.69;12197750;19;20019;-84
2023/12/09 14:06:28;;;;;;;4.10;1.48;;;;;;;9.65;100.00;98656.84;12209586;19;20594;-84
2023/12/09 14:10:30;;;;;;;5.97;2.20;;;;;;;9.57;100.00;98664.53;12209654;19;20007;-85
2023/12/09 14:14:32;;;;;;;11.02;2.75;;;;;;;9.55;100.00;98649.41;12191593;19;20665;-83
2023/12/09 14:18:35;;;;;;;7.70;2.33;;;;;;;9.42;100.00;98631.50;12210235;19;20014;-83
2023/12/09 14:22:38;;;;;;;7.25;2.50;;;;;;;9.30;100.00;98615.25;12211030;19;20034;-82
2023/12/09 14:26:39;;;;;;;4.47;1.73;;;;;;;9.21;100.00;98616.03;12193447;19;20006;-82
2023/12/09 14:30:41;;;;;;;3.63;1.95;;;;;;;9.12;100.00;98602.81;12215158;19;20011;-83
2023/12/09 14:34:43;;;;;;;7.75;1.83;;;;;;;8.96;100.00;98598.38;12188317;19;20596;-81
2023/12/09 14:38:46;;;;;;;8.88;2.50;;;;;;;8.88;100.00;98585.97;12206545;19;20037;-80
2023/12/09 14:42:47;;;;;;;4.90;2.03;;;;;;;8.82;100.00;98564.25;12222180;19;20011;-82
2023/12/09 14:46:50;;;;;;;4.63;1.75;;;;;;;8.74;100.00;98562.84;12197867;19;20032;-83
2023/12/09 14:50:53;;;;;;;;;;;;;;;8.63;100.00;98555.69;12212669;19;20015;-82
2023/12/09 14:54:56;;;;;;;4.28;1.77;;;;;;;8.58;100.00;98530.94;12220300;19;19921;-80
2023/12/09 14:58:58;;;;;;;2.58;1.17;;;;;;;8.45;100.00;98535.00;12189438;19;20007;-79
2023/12/09 15:02:59;;;;;;;3.58;1.40;;;;;;;8.47;100.00;98512.75;12204082;19;20018;-80
2023/12/09 15:07:02;;;;;;;6.97;1.55;;;;;;;8.42;100.00;98499.84;12206568;19;20010;-81
2023/12/09 15:11:04;;;;;;;4.83;1.57;;;;;;;8.30;100.00;98480.81;12190446;19;20018;-80
2023/12/09 15:15:06;;;;;;;3.97;1.70;;;;;;;8.29;100.00;98472.84;12213079;19;20007;-81
2023/12/09 15:19:08;;;;;;;6.70;1.50;;;;;;;8.22;100.00;98446.47;12212009;19;20014;-80
2023/12/09 15:23:10;;;;;;;5.30;1.33;;;;;;;8.15;100.00;98429.44;12194281;19;20014;-83
2023/12/09 15:27:11;;;;;;;4.75;1.50;;;;;;;8.15;100.00;98423.09;12218617;19;20020;-80
2023/12/09 15:31:14;;;;;;;4.32;1.20;;;;;;;8.17;100.00;98413.50;12218232;19;20022;-79
2023/12/09 15:35:15;;;;;;;3.30;1.10;;;;;;;8.09;100.00;98404.97;12202391;19;20009;-79
2023/12/09 15:39:18;;;;;;;3.95;1.30;;;;;;;8.08;100.00;98384.94;12218758;19;20007;-81
2023/12/09 15:43:19;;;;;;;3.30;1.05;;;;;;;8.03;100.00;98382.22;12220516;19;20011;-78
2023/12/09 15:47:22;;;;;;;4.30;1.35;;;;;;;8.00;100.00;98374.47;12205006;19;20033;-78
2023/12/09 15:51:23;;;;;;;5.32;1.05;;;;;;;8.07;100.00;98375.06;12230220;19;20011;-81
2023/12/09 15:55:25;;;;;;;4.35;1.10;;;;;;;8.04;100.00;98356.41;12231186;19;20021;-79
2023/12/09 15:59:27;;;;;;;2.10;0.70;;;;;;;7.92;100.00;98320.16;12221813;19;20507;-81
2023/12/09 16:03:29;;;;;;;4.07;1.20;;;;;;;7.86;100.00;98300.13;12224574;19;20011;-82
2023/12/09 16:07:32;;;;;;;3.47;1.20;;;;;;;7.88;100.00;98280.63;12225918;19;20014;-81
2023/12/09 16:11:34;;;;;;;;;;;;;;;7.87;100.00;98257.88;12205226;19;20012;-80
2023/12/09 16:15:36;;;;;;;2.47;0.88;;;;;;;7.76;100.00;98247.97;12221110;19;20322;-82
2023/12/09 16:19:39;;;;;;;1.90;1.00;;;;;;;7.82;100.00;98246.06;12227452;19;20010;-80
2023/12/09 16:23:41;;;;;;;1.15;0.73;;;;;;;7.85;100.00;98253.75;12205678;19;20010;-82
2023/12/09 16:27:43;;;;;;;1.60;0.95;;;;;;;7.88;100.00;98221.16;12224755;19;20010;-86
2023/12/09 16:31:46;;;;;;;2.47;1.03;;;;;;;7.91;100.00;98209.63;12201428;19;20007;-80
2023/12/09 16:35:48;;;;;;;3.00;1.30;;;;;;;7.88;100.00;98210.19;12221645;19;20010;-81
2023/12/09 16:39:51;;;;;;;2.93;1.00;;;;;;;7.97;100.00;98197.56;12218085;19;20006;-80
2023/12/09 16:43:52;;;;;;;3.38;1.30;;;;;;;8.01;100.00;98169.59;12198758;19;20013;-82
2023/12/09 16:47:55;;;;;;;7.03;1.60;;;;;;;7.97;100.00;98163.81;12214533;19;20014;-80
2023/12/09 16:51:56;;;;;;;1.80;0.80;;;;;;;7.91;100.00;98162.16;12221468;19;20472;-83
2023/12/09 16:55:59;;;;;;;1.47;0.60;;;;;;;8.03;100.00;98129.84;12197243;19;20006;-80
2023/12/09 17:00:01;;;;;;;4.20;1.10;;;;;;;7.99;100.00;98101.28;12218471;19;20002;-82
2023/12/09 17:04:03;;;;;;;3.50;1.13;;;;;;;7.99;100.00;98090.31;12207797;19;20278;-81
2023/12/09 17:08:05;;;;;;;2.53;0.95;;;;;;;8.00;100.00;98091.94;12186148;19;20410;-82
2023/12/09 17:12:07;;;;;;;3.10;0.90;;;;;;;8.07;100.00;98083.47;12212361;19;20132;-81
2023/12/09 17:16:09;;;;;;;3.15;1.00;;;;;;;8.07;100.00;98070.56;12212898;19;20473;-81
2023/12/09 17:20:11;;;;;;;3.10;1.40;;;;;;;8.11;100.00;98063.41;12183444;19;20050;-82
2023/12/09 17:24:13;;;;;;;4.97;1.43;;;;;;;8.04;100.00;98057.41;12203801;19;20010;-82
2023/12/09 17:28:15;;;;;;;4.55;1.30;;;;;;;8.10;100.00;98041.75;12216577;19;20033;-81
2023/12/09 17:32:17;;;;;;;1.77;0.90;;;;;;;8.11;100.00;98035.97;12192671;19;20028;-80
2023/12/09 17:36:22;;;;;;;2.90;1.43;;;;;;;8.14;100.00;98037.34;12210632;19;20002;-80
2023/12/09 17:40:24;;;;;;;3.20;1.35;;;;;;;8.07;100.00;98034.09;12207900;19;20084;-84
2023/12/09 17:44:26;;;;;;;3.83;1.27;;;;;;;8.03;100.00;98016.53;12199654;19;20014;-80
2023/12/09 17:48:28;;;;;;;4.78;1.40;;;;;;;7.93;100.00;98026.41;12226993;19;20011;-80
2023/12/09 17:52:30;;;;;;;2.33;1.20;;;;;;;7.92;100.00;98024.78;12231041;19;20073;-81
2023/12/09 17:56:36;;;;;;;2.53;1.27;;;;;;;7.91;100.00;98025.03;12203253;19;20021;-80
2023/12/09 18:00:38;;;;;;;3.63;1.55;;;;;;;7.82;100.00;98018.47;12216935;19;20008;-79
2023/12/09 18:04:40;;;;;;;4.90;1.75;;;;;;;7.83;100.00;98014.66;12224589;19;20024;-80
2023/12/09 18:08:46;;;;;;;3.42;1.10;;;;;;;7.77;100.00;98005.59;12206805;19;20025;-81
2023/12/09 18:12:49;;;;;;;2.92;1.38;;;;;;;7.71;100.00;97999.31;12228612;19;20018;-84
2023/12/09 18:16:51;;;;;;;2.30;1.33;;;;;;;7.68;100.00;97997.13;12199112;19;20016;-79
2023/12/09 18:20:52;;;;;;;2.53;1.20;;;;;;;7.64;100.00;97990.50;12226140;19;20571;-80
2023/12/09 18:24:54;;;;;;;3.28;1.65;;;;;;;7.54;100.00;97958.47;12217895;19;20011;-78
2023/12/09 18:28:57;;;;;;;3.22;2.05;;;;;;;7.56;100.00;97954.66;12196624;19;20477;-80
2023/12/09 18:32:59;;;;;;;1.65;1.20;;;;;;;7.52;100.00;97937.91;12221661;19;20381;-84
2023/12/09 18:37:01;;;;;;;3.30;1.25;;;;;;;7.48;100.00;97915.72;12211754;19;20060;-80